Time;durP1;ratioP1;P1;durP2;ratioP2;P2;SDS_P1;SDS_P2;PMS_P1;PMS_P2;Temp;Humidity;BMP_temperature;BMP_pressure;BME280_temperature;BME280_humidity;BME280_pressure;Samples;Min_cycle;Max_cycle;Signal;HPM_P1;HPM_P2
2021/03/27 00:00:05;;;;;;;14.77;8.38;;;;;;;9.32;84.28;96103.44;1035577;28;20049;-56
2021/03/27 00:00:40;;;;;;;13.27;8.65;;;;;;;9.38;82.93;96102.78;1043805;28;20017;-57
2021/03/27 00:01:11;;;;;;;15.55;9.63;;;;;;;9.41;83.23;96114.88;1043889;28;20161;-56
2021/03/27 00:01:42;;;;;;;15.43;9.02;;;;;;;9.46;83.31;96117.88;1038066;28;20010;-57
2021/03/27 00:02:23;;;;;;;18.08;10.10;;;;;;;9.49;83.44;96122.00;1035604;28;20006;-57
2021/03/27 00:03:00;;;;;;;13.10;7.88;;;;;;;9.55;82.43;96113.41;1031676;28;20014;-57
2021/03/27 00:03:50;;;;;;;17.33;8.85;;;;;;;9.56;82.73;96113.25;1031526;28;20475;-56
2021/03/27 00:04:35;;;;;;;16.02;9.18;;;;;;;9.56;82.83;96113.25;1035618;28;20543;-57
2021/03/27 00:05:18;;;;;;;17.90;8.88;;;;;;;9.57;83.32;96106.94;1039562;28;20086;-57
2021/03/27 00:06:00;;;;;;;13.77;6.93;;;;;;;9.67;82.75;96093.50;1031518;28;20018;-57
2021/03/27 00:06:43;;;;;;;10.25;6.50;;;;;;;9.76;81.22;96065.16;1035757;28;20017;-56
2021/03/27 00:07:28;;;;;;;12.10;6.90;;;;;;;10.00;80.27;96073.06;1031615;28;20015;-57
2021/03/27 00:08:19;;;;;;;11.23;6.60;;;;;;;10.05;79.75;96071.72;1031526;28;20019;-58
2021/03/27 00:09:00;;;;;;;13.05;6.78;;;;;;;10.08;79.47;96068.75;1036252;28;20029;-57
2021/03/27 00:09:36;;;;;;;10.30;6.25;;;;;;;10.03;79.63;96055.16;1035712;28;20013;-57
2021/03/27 00:10:25;;;;;;;12.13;6.47;;;;;;;10.15;79.92;96062.59;1035514;28;20014;-57
2021/03/27 00:10:58;;;;;;;12.43;6.18;;;;;;;10.15;80.08;96057.28;1039838;28;20031;-57
2021/03/27 00:11:45;;;;;;;10.15;6.53;;;;;;;10.26;79.30;96056.09;1039771;28;20499;-57
2021/03/27 00:12:23;;;;;;;9.23;5.45;;;;;;;10.30;78.37;96054.75;1047930;28;20036;-58
2021/03/27 00:13:13;;;;;;;10.00;5.57;;;;;;;10.30;78.82;96046.78;1043840;28;20005;-57
2021/03/27 00:13:58;;;;;;;9.65;5.28;;;;;;;10.35;78.27;96041.81;1039648;28;20025;-58
2021/03/27 00:14:40;;;;;;;8.85;5.35;;;;;;;10.35;78.93;96047.13;1039607;28;20013;-56
2021/03/27 00:15:23;;;;;;;9.90;5.90;;;;;;;10.34;79.00;96037.50;1039659;28;20052;-58
2021/03/27 00:16:09;;;;;;;11.30;5.70;;;;;;;10.34;78.33;96036.66;1039755;28;20024;-56
2021/03/27 00:16:54;;;;;;;7.53;4.95;;;;;;;10.34;78.62;96037.50;1043833;28;20482;-56
2021/03/27 00:17:38;;;;;;;8.55;5.78;;;;;;;10.34;77.71;96042.78;1047971;28;20051;-57
2021/03/27 00:18:21;;;;;;;10.20;5.30;;;;;;;10.37;77.67;96041.63;1039680;28;20372;-56
2021/03/27 00:19:02;;;;;;;10.50;5.45;;;;;;;10.33;77.52;96027.88;1039753;28;20010;-57
2021/03/27 00:19:42;;;;;;;8.00;5.00;;;;;;;10.37;77.97;96033.69;1039643;28;20013;-58
2021/03/27 00:20:25;;;;;;;10.32;5.70;;;;;;;10.36;77.58;96040.81;1039708;28;20020;-57
2021/03/27 00:21:02;;;;;;;7.43;5.22;;;;;;;10.36;77.98;96039.97;1039674;28;20017;-58
2021/03/27 00:21:44;;;;;;;9.80;5.30;;;;;;;10.36;76.82;96040.81;1031606;28;20469;-57
2021/03/27 00:22:27;;;;;;;9.98;5.45;;;;;;;10.37;77.10;96042.47;1031562;28;20014;-58
2021/03/27 00:23:01;;;;;;;9.10;5.38;;;;;;;10.38;77.51;96038.81;1039592;28;20010;-57
2021/03/27 00:23:36;;;;;;;9.02;5.75;;;;;;;10.32;77.53;96036.03;1040166;28;20021;-57
2021/03/27 00:24:17;;;;;;;9.15;5.47;;;;;;;10.32;77.54;96030.72;1036225;28;20053;-56
2021/03/27 00:25:05;;;;;;;7.60;5.18;;;;;;;10.34;78.00;96039.31;1036184;28;20072;-59
2021/03/27 00:25:40;;;;;;;8.90;5.47;;;;;;;10.33;77.39;96035.84;1032182;28;20010;-57
2021/03/27 00:26:13;;;;;;;12.60;5.63;;;;;;;10.31;77.36;96037.84;1036215;28;20097;-57
2021/03/27 00:27:01;;;;;;;13.85;5.18;;;;;;;10.32;77.17;96038.69;1036082;28;20030;-58
2021/03/27 00:27:36;;;;;;;9.93;4.75;;;;;;;10.30;77.23;96028.19;1043907;28;20095;-58
2021/03/27 00:28:20;;;;;;;8.77;4.95;;;;;;;10.35;76.67;96047.13;1036872;28;20499;-57
2021/03/27 00:28:55;;;;;;;9.57;4.75;;;;;;;10.33;76.87;96035.03;1044335;28;20013;-57
2021/03/27 00:29:36;;;;;;;10.68;5.65;;;;;;;10.33;77.34;96038.50;1043478;28;20029;-57
2021/03/27 00:30:12;;;;;;;8.98;5.28;;;;;;;10.33;77.56;96038.50;1040373;28;20020;-58
2021/03/27 00:30:49;;;;;;;9.50;5.25;;;;;;;10.31;77.73;96035.19;1039248;28;20009;-57
2021/03/27 00:31:23;;;;;;;7.97;4.82;;;;;;;10.30;78.03;96035.34;1039314;28;20021;-59
2021/03/27 00:32:04;;;;;;;8.45;4.55;;;;;;;10.29;78.22;96033.66;1032195;28;20014;-58
2021/03/27 00:32:39;;;;;;;9.40;5.20;;;;;;;10.27;78.15;96047.09;1036183;28;20532;-57
2021/03/27 00:33:09;;;;;;;8.40;5.47;;;;;;;10.25;78.29;96043.00;1036200;28;20456;-58
2021/03/27 00:33:44;;;;;;;9.07;5.25;;;;;;;10.24;78.89;96041.31;1036055;28;20021;-56
2021/03/27 00:34:18;;;;;;;9.93;5.35;;;;;;;10.02;79.38;96005.75;1032219;28;20562;-56
2021/03/27 00:34:54;;;;;;;7.28;5.00;;;;;;;10.19;79.51;96039.19;1040277;28;20051;-56
2021/03/27 00:35:35;;;;;;;8.40;4.85;;;;;;;10.18;79.21;96038.34;1032242;28;20018;-57
2021/03/27 00:36:11;;;;;;;8.27;5.25;;;;;;;10.15;79.34;96044.03;1034908;28;20042;-58
2021/03/27 00:36:55;;;;;;;10.63;5.32;;;;;;;10.15;80.16;96033.41;1038212;28;20566;-59
2021/03/27 00:37:26;;;;;;;8.70;5.28;;;;;;;10.13;79.96;96037.22;1036041;28;20095;-57
2021/03/27 00:37:59;;;;;;;8.80;5.30;;;;;;;10.12;80.15;96036.41;1036254;28;20076;-57
2021/03/27 00:38:34;;;;;;;9.68;6.45;;;;;;;10.09;80.43;96036.72;1034396;28;20018;-57
2021/03/27 00:39:15;;;;;;;8.02;5.25;;;;;;;10.09;81.27;96038.56;1036083;28;20022;-57
2021/03/27 00:39:58;;;;;;;8.63;5.47;;;;;;;10.07;81.15;96036.06;1032066;28;20023;-57
2021/03/27 00:40:30;;;;;;;9.70;5.50;;;;;;;10.06;81.12;96036.25;1036201;28;20029;-58
2021/03/27 00:41:01;;;;;;;9.68;5.47;;;;;;;10.04;81.38;96028.44;1040256;28;20022;-57
2021/03/27 00:41:36;;;;;;;9.75;5.30;;;;;;;10.04;81.59;96035.59;1036142;28;20045;-57
2021/03/27 00:42:10;;;;;;;10.82;5.70;;;;;;;10.02;81.74;96032.28;1032138;28;20061;-58
2021/03/27 00:42:51;;;;;;;8.02;4.93;;;;;;;10.01;81.73;96028.78;1028098;28;20366;-56
2021/03/27 00:43:27;;;;;;;9.23;5.72;;;;;;;10.00;81.85;96030.63;1030579;28;20046;-59
2021/03/27 00:43:59;;;;;;;9.80;6.32;;;;;;;9.99;81.88;96034.25;1030600;28;20019;-57
2021/03/27 00:44:41;;;;;;;9.77;5.47;;;;;;;10.00;82.33;96029.81;1037098;28;20019;-57
2021/03/27 00:45:15;;;;;;;9.27;5.90;;;;;;;9.97;82.57;96025.66;1036185;28;20021;-57
2021/03/27 00:45:49;;;;;;;11.98;5.63;;;;;;;9.97;82.96;96036.25;1036116;28;20393;-58
2021/03/27 00:46:19;;;;;;;8.75;6.05;;;;;;;9.99;82.64;96031.59;1032156;28;20082;-58
2021/03/27 00:46:50;;;;;;;8.90;6.15;;;;;;;10.00;81.81;96029.81;1032104;28;20014;-59
2021/03/27 00:47:26;;;;;;;9.75;6.15;;;;;;;10.01;81.78;96034.09;1032062;28;20411;-57
2021/03/27 00:48:02;;;;;;;11.45;5.93;;;;;;;10.04;80.94;96028.44;1036200;28;20025;-57
2021/03/27 00:48:37;;;;;;;8.98;5.95;;;;;;;10.06;81.27;96028.28;1036138;28;20594;-58
2021/03/27 00:49:19;;;;;;;10.60;6.10;;;;;;;10.07;81.20;96029.94;1032080;28;20083;-58
2021/03/27 00:50:09;;;;;;;8.82;5.90;;;;;;;10.06;82.04;96034.41;1031861;28;20042;-57
2021/03/27 00:50:59;;;;;;;8.45;5.63;;;;;;;10.09;82.35;96027.94;1036537;28;20022;-58
2021/03/27 00:51:34;;;;;;;10.00;6.60;;;;;;;10.00;82.91;96035.94;1041557;28;20025;-59
2021/03/27 00:52:07;;;;;;;12.95;7.22;;;;;;;9.98;83.01;96035.28;1040233;28;20074;-57
2021/03/27 00:52:41;;;;;;;13.30;6.30;;;;;;;9.96;83.37;96037.28;1035843;28;20495;-58
2021/03/27 00:53:17;;;;;;;12.45;6.93;;;;;;;9.96;83.46;96036.44;1033657;28;20023;-57
2021/03/27 00:54:06;;;;;;;10.10;5.85;;;;;;;9.97;83.11;96038.09;1031835;28;20025;-56
2021/03/27 00:54:46;;;;;;;10.65;6.38;;;;;;;9.96;83.92;96039.94;1032093;28;20050;-57
2021/03/27 00:55:22;;;;;;;10.55;6.43;;;;;;;9.96;84.26;96031.97;1032157;28;20484;-57
2021/03/27 00:55:55;;;;;;;13.20;7.43;;;;;;;9.96;84.25;96034.63;1040290;28;20018;-57
2021/03/27 00:56:30;;;;;;;12.38;6.75;;;;;;;9.97;83.86;96036.25;1042171;28;20029;-57
2021/03/27 00:57:05;;;;;;;10.77;6.05;;;;;;;9.96;83.67;96039.94;1042122;28;20025;-59
2021/03/27 00:57:39;;;;;;;12.60;6.13;;;;;;;9.95;83.57;96034.78;1040274;28;20523;-57
2021/03/27 00:58:29;;;;;;;10.70;6.55;;;;;;;9.94;84.16;96033.13;1035796;28;20026;-57
2021/03/27 00:59:02;;;;;;;;;;;;;;;9.93;83.84;96037.59;1040687;28;20022;-58
2021/03/27 00:59:36;;;;;;;12.27;6.50;;;;;;;9.89;83.91;96033.66;1040075;28;19901;-58
2021/03/27 01:00:15;;;;;;;11.65;6.47;;;;;;;9.89;83.91;96038.09;1036102;28;20018;-59
2021/03/27 01:00:47;;;;;;;10.18;6.28;;;;;;;9.88;84.67;96041.78;1032217;28;20042;-57
2021/03/27 01:01:19;;;;;;;11.85;6.85;;;;;;;9.85;84.97;96036.81;1028078;28;20023;-57
2021/03/27 01:01:51;;;;;;;12.13;6.95;;;;;;;9.85;84.52;96037.63;1028182;28;20018;-59
2021/03/27 01:02:22;;;;;;;13.55;6.97;;;;;;;9.85;85.35;96034.16;1032599;28;20044;-57
2021/03/27 01:02:57;;;;;;;10.38;6.30;;;;;;;9.83;85.15;96036.97;1032826;28;20010;-59
2021/03/27 01:03:38;;;;;;;12.13;6.93;;;;;;;9.81;86.04;96036.31;1033020;28;20014;-57
2021/03/27 01:04:12;;;;;;;14.70;7.13;;;;;;;9.81;86.18;96036.31;1034181;28;20047;-56
2021/03/27 01:04:42;;;;;;;13.52;7.32;;;;;;;9.76;86.35;96031.50;1036188;28;20018;-56
2021/03/27 01:05:16;;;;;;;12.90;7.25;;;;;;;9.71;86.90;96033.00;1036184;28;20396;-56
2021/03/27 01:05:48;;;;;;;12.32;7.90;;;;;;;9.65;87.30;96029.22;1032152;28;20058;-57
2021/03/27 01:06:26;;;;;;;11.32;6.85;;;;;;;9.67;87.15;96027.22;1036019;28;20025;-57
2021/03/27 01:07:01;;;;;;;11.90;7.50;;;;;;;9.69;86.65;96029.72;1043715;28;20533;-57
2021/03/27 01:07:35;;;;;;;13.07;7.30;;;;;;;9.67;87.37;96029.88;1040158;28;20017;-58
2021/03/27 01:08:07;;;;;;;13.35;7.47;;;;;;;9.62;87.49;96029.53;1036282;28;20392;-57
2021/03/27 01:08:38;;;;;;;15.63;6.85;;;;;;;9.63;87.43;96031.19;1033291;28;20389;-58
2021/03/27 01:09:09;;;;;;;10.65;7.20;;;;;;;9.61;87.48;96023.41;1032965;28;20041;-57
2021/03/27 01:09:46;;;;;;;13.27;7.97;;;;;;;9.59;87.97;96028.03;1036141;28;20029;-57
2021/03/27 01:10:31;;;;;;;10.88;7.35;;;;;;;9.57;88.01;96024.72;1035974;28;20029;-58
2021/03/27 01:11:05;;;;;;;10.32;7.43;;;;;;;9.48;89.46;96028.41;1036075;28;20022;-59
2021/03/27 01:11:41;;;;;;;16.55;8.07;;;;;;;9.47;90.08;96028.56;1036102;28;20097;-59
2021/03/27 01:12:14;;;;;;;14.82;7.75;;;;;;;9.47;89.33;96032.03;1032092;28;20015;-58
2021/03/27 01:12:45;;;;;;;11.05;7.28;;;;;;;9.47;89.55;96026.72;1035934;28;20053;-59
2021/03/27 01:13:19;;;;;;;13.25;7.78;;;;;;;9.43;89.68;96028.88;1036045;28;20133;-59
2021/03/27 01:13:52;;;;;;;14.65;7.80;;;;;;;9.41;89.64;96030.88;1031907;28;20027;-58
2021/03/27 01:14:27;;;;;;;13.65;7.78;;;;;;;9.38;90.09;96025.91;1032892;28;20113;-57
2021/03/27 01:15:00;;;;;;;15.10;7.65;;;;;;;9.33;91.05;96025.56;1036006;28;20010;-58
2021/03/27 01:15:33;;;;;;;12.15;7.63;;;;;;;9.28;92.00;96030.53;1036145;28;20060;-57
2021/03/27 01:16:07;;;;;;;13.35;7.47;;;;;;;9.27;92.30;96028.09;1036044;28;20080;-58
2021/03/27 01:16:39;;;;;;;14.77;8.25;;;;;;;9.27;92.48;96041.34;1031883;28;20018;-58
2021/03/27 01:17:12;;;;;;;10.32;7.18;;;;;;;9.27;92.47;96036.03;1028012;28;20125;-57
2021/03/27 01:17:45;;;;;;;13.68;8.20;;;;;;;9.23;93.00;96039.00;1040176;28;20060;-56
2021/03/27 01:18:27;;;;;;;14.50;8.00;;;;;;;9.13;94.47;96033.03;1036023;28;20017;-57
2021/03/27 01:19:08;;;;;;;15.57;8.00;;;;;;;9.17;94.41;96034.34;1027887;28;20023;-58
2021/03/27 01:19:41;;;;;;;13.50;7.80;;;;;;;9.15;94.03;96039.00;1027906;28;20015;-56
2021/03/27 01:20:23;;;;;;;14.85;8.73;;;;;;;9.12;94.40;96035.84;1036041;28;20034;-58
2021/03/27 01:20:57;;;;;;;15.45;7.80;;;;;;;9.08;94.72;96038.00;1035949;28;20010;-58
2021/03/27 01:21:31;;;;;;;12.48;7.70;;;;;;;9.06;95.05;96032.06;1035961;28;20104;-57
2021/03/27 01:22:03;;;;;;;15.48;7.85;;;;;;;9.06;94.50;96037.34;1036113;28;20010;-57
2021/03/27 01:22:34;;;;;;;15.82;8.07;;;;;;;9.03;94.64;96037.66;1035973;28;20388;-58
2021/03/27 01:23:06;;;;;;;13.23;7.97;;;;;;;8.97;95.31;96033.84;1036004;28;20054;-56
2021/03/27 01:23:46;;;;;;;12.70;8.45;;;;;;;8.97;95.54;96039.16;1035758;28;20077;-57
2021/03/27 01:24:17;;;;;;;12.15;7.47;;;;;;;8.96;95.27;96036.66;1036093;28;20018;-58
2021/03/27 01:24:47;;;;;;;17.55;8.00;;;;;;;8.96;94.47;96047.25;1032072;28;20011;-57
2021/03/27 01:25:22;;;;;;;14.73;7.45;;;;;;;8.96;94.23;96036.66;1031885;28;20023;-58
2021/03/27 01:25:58;;;;;;;14.07;8.75;;;;;;;8.95;93.94;96035.84;1040114;28;20030;-57
2021/03/27 01:26:38;;;;;;;11.88;8.07;;;;;;;8.94;94.56;96043.97;1044251;28;20097;-56
2021/03/27 01:27:20;;;;;;;15.07;8.68;;;;;;;8.91;94.45;96038.97;1036112;28;20018;-56
2021/03/27 01:28:08;;;;;;;11.68;7.80;;;;;;;8.83;95.01;96037.13;1035551;28;20419;-57
2021/03/27 01:28:43;;;;;;;15.77;8.50;;;;;;;8.81;94.83;96044.41;1036017;28;20010;-57
2021/03/27 01:29:34;;;;;;;14.95;8.43;;;;;;;8.75;95.29;96045.91;1036022;28;20149;-57
2021/03/27 01:30:09;;;;;;;12.85;7.40;;;;;;;8.71;95.24;96049.88;1032604;28;20452;-57
2021/03/27 01:30:43;;;;;;;11.55;7.90;;;;;;;8.73;95.47;96047.88;1031959;28;20064;-56
2021/03/27 01:31:17;;;;;;;14.18;8.02;;;;;;;8.72;95.58;96043.56;1036015;28;20113;-57
2021/03/27 01:32:04;;;;;;;14.20;8.23;;;;;;;8.71;96.16;96043.72;1031908;28;20076;-56
2021/03/27 01:32:48;;;;;;;14.60;8.40;;;;;;;8.67;96.46;96038.78;1031274;28;20102;-58
2021/03/27 01:33:30;;;;;;;15.30;8.40;;;;;;;8.64;96.18;96040.91;1032089;28;20251;-56
2021/03/27 01:34:03;;;;;;;22.02;8.38;;;;;;;8.61;96.70;96039.41;1039866;28;20037;-58
2021/03/27 01:34:47;;;;;;;15.18;8.20;;;;;;;8.58;96.86;96044.19;1036071;28;20491;-56
2021/03/27 01:35:29;;;;;;;12.38;8.02;;;;;;;8.56;97.11;96040.88;1040060;28;20022;-57
2021/03/27 01:36:10;;;;;;;12.55;8.25;;;;;;;8.56;96.84;96047.00;1036029;28;20517;-55
2021/03/27 01:36:44;;;;;;;15.13;8.15;;;;;;;8.50;98.22;96047.66;1040264;28;20041;-57
2021/03/27 01:37:19;;;;;;;15.00;8.80;;;;;;;8.49;98.66;96048.63;1036418;28;20539;-58
2021/03/27 01:37:53;;;;;;;14.00;9.20;;;;;;;8.43;99.08;96042.19;1038723;28;20044;-55
2021/03/27 01:38:37;;;;;;;13.20;8.68;;;;;;;8.39;99.32;96046.06;1037908;28;20026;-57
2021/03/27 01:39:13;;;;;;;15.30;8.73;;;;;;;8.39;99.42;96045.25;1039056;28;20013;-57
2021/03/27 01:40:01;;;;;;;11.93;7.85;;;;;;;8.38;100.00;96051.56;1035837;28;20006;-56
2021/03/27 01:40:44;;;;;;;15.65;8.85;;;;;;;8.35;99.99;96046.56;1032120;28;20014;-57
2021/03/27 01:41:16;;;;;;;15.57;9.68;;;;;;;8.35;100.00;96051.88;1032200;28;20125;-57
2021/03/27 01:42:03;;;;;;;16.33;9.10;;;;;;;8.32;100.00;96045.06;1032029;28;20023;-57
2021/03/27 01:42:46;;;;;;;12.80;8.15;;;;;;;8.29;100.00;96045.41;1040230;28;20481;-57
2021/03/27 01:43:27;;;;;;;13.15;8.50;;;;;;;8.29;100.00;96050.69;1035957;28;20033;-56
2021/03/27 01:44:08;;;;;;;12.63;8.65;;;;;;;8.30;100.00;96052.34;1035901;28;20392;-57
2021/03/27 01:44:49;;;;;;;16.88;9.52;;;;;;;8.27;100.00;96050.84;1040072;28;20075;-58
2021/03/27 01:45:39;;;;;;;12.15;7.97;;;;;;;8.25;100.00;96046.69;1036010;28;20026;-57
2021/03/27 01:46:29;;;;;;;12.40;7.95;;;;;;;8.25;100.00;96044.03;1031714;28;20029;-57
2021/03/27 01:47:04;;;;;;;12.65;8.45;;;;;;;8.25;100.00;96046.69;1037266;28;20054;-58
2021/03/27 01:47:54;;;;;;;16.40;8.70;;;;;;;8.23;100.00;96041.56;1040194;28;20029;-59
2021/03/27 01:48:36;;;;;;;14.43;8.95;;;;;;;8.28;100.00;96049.03;1040084;28;20021;-57
2021/03/27 01:49:16;;;;;;;13.77;8.75;;;;;;;8.31;100.00;96040.78;1040132;28;20021;-56
2021/03/27 01:50:07;;;;;;;14.20;8.48;;;;;;;8.34;100.00;96052.84;1031946;28;20029;-58
2021/03/27 01:50:42;;;;;;;14.13;8.23;;;;;;;8.37;100.00;96047.25;1035894;28;20106;-58
2021/03/27 01:51:31;;;;;;;13.93;8.75;;;;;;;8.33;100.00;96045.91;1031937;28;20447;-58
2021/03/27 01:52:15;;;;;;;12.90;7.93;;;;;;;8.35;100.00;96050.03;1040106;28;20495;-58
2021/03/27 01:53:05;;;;;;;12.40;7.78;;;;;;;8.37;100.00;96045.41;1036977;28;20029;-58
2021/03/27 01:53:42;;;;;;;14.65;8.80;;;;;;;8.33;100.00;96036.16;1036213;28;20450;-58
2021/03/27 01:54:16;;;;;;;15.35;8.05;;;;;;;8.41;100.00;96049.41;1031803;28;20481;-56
2021/03/27 01:55:00;;;;;;;13.88;9.18;;;;;;;8.36;100.00;96045.56;1036077;28;20014;-57
2021/03/27 01:55:44;;;;;;;14.68;8.38;;;;;;;8.40;100.00;96050.41;1031880;28;20046;-57
2021/03/27 01:56:22;;;;;;;13.52;8.77;;;;;;;8.39;100.00;96051.38;1040045;28;20017;-56
2021/03/27 01:57:09;;;;;;;15.93;8.73;;;;;;;8.38;100.00;96057.66;1044042;28;20517;-57
2021/03/27 01:57:40;;;;;;;12.60;8.63;;;;;;;8.37;100.00;96056.00;1035925;28;20028;-57
2021/03/27 01:58:29;;;;;;;15.73;8.52;;;;;;;8.35;100.00;96047.41;1035891;28;20077;-57
2021/03/27 01:59:10;;;;;;;13.02;8.32;;;;;;;8.41;100.00;96059.16;1031804;28;20496;-57
2021/03/27 01:59:51;;;;;;;13.38;8.68;;;;;;;8.44;100.00;96064.16;1039825;28;20014;-56
2021/03/27 02:00:28;;;;;;;10.55;7.60;;;;;;;8.55;100.00;96063.03;1031984;28;20480;-57
2021/03/27 02:01:08;;;;;;;13.85;8.18;;;;;;;8.59;98.86;96064.41;1031720;28;20486;-58
2021/03/27 02:01:42;;;;;;;11.52;7.60;;;;;;;8.60;98.19;96060.75;1035956;28;20101;-57
2021/03/27 02:02:25;;;;;;;14.27;8.30;;;;;;;8.63;97.66;96063.06;1031813;28;20045;-55
2021/03/27 02:03:15;;;;;;;13.38;8.10;;;;;;;8.63;98.04;96063.91;1031740;28;20092;-57
2021/03/27 02:03:50;;;;;;;13.35;8.90;;;;;;;8.65;97.54;96071.69;1028248;28;20449;-57
2021/03/27 02:04:30;;;;;;;12.05;7.72;;;;;;;8.76;96.95;96060.81;1035994;28;20462;-57
2021/03/27 02:05:04;;;;;;;13.95;7.85;;;;;;;8.81;96.69;96061.16;1035801;28;20395;-57
2021/03/27 02:05:38;;;;;;;15.13;8.77;;;;;;;8.81;97.02;96070.88;1030281;28;20377;-57
2021/03/27 02:06:28;;;;;;;12.13;7.18;;;;;;;8.83;96.50;96068.91;1035863;28;20057;-56
2021/03/27 02:07:03;;;;;;;13.40;7.60;;;;;;;8.93;95.26;96066.13;1031789;28;20044;-58
2021/03/27 02:07:54;;;;;;;12.63;7.03;;;;;;;8.98;94.26;96067.28;1031862;28;20045;-57
2021/03/27 02:08:36;;;;;;;12.20;6.70;;;;;;;9.08;93.21;96069.78;1035895;28;20032;-57
2021/03/27 02:09:12;;;;;;;9.30;6.03;;;;;;;9.29;91.62;96076.44;1040168;28;20021;-57
2021/03/27 02:09:54;;;;;;;8.63;5.32;;;;;;;9.50;90.00;96082.06;1039902;28;20014;-58
2021/03/27 02:10:40;;;;;;;9.77;5.68;;;;;;;9.74;87.20;96083.06;1035687;28;20025;-57
2021/03/27 02:11:31;;;;;;;10.52;5.68;;;;;;;9.85;87.37;96080.06;1035707;28;20014;-57
2021/03/27 02:12:07;;;;;;;10.60;5.90;;;;;;;9.89;86.40;96070.78;1035939;28;20017;-56
2021/03/27 02:12:51;;;;;;;9.75;6.22;;;;;;;9.90;86.28;96077.72;1031810;28;20507;-57
2021/03/27 02:13:33;;;;;;;9.60;5.40;;;;;;;9.98;85.03;96085.69;1031737;28;20024;-57
2021/03/27 02:14:05;;;;;;;8.25;5.40;;;;;;;10.05;84.58;96079.69;1039852;28;20040;-57
2021/03/27 02:14:54;;;;;;;9.18;5.43;;;;;;;10.08;85.33;96092.63;1039399;28;20033;-57
2021/03/27 02:15:33;;;;;;;9.02;5.85;;;;;;;10.05;85.48;96096.47;1043977;28;20020;-58
2021/03/27 02:16:06;;;;;;;9.55;5.68;;;;;;;10.03;85.81;96093.13;1035772;28;20045;-57
2021/03/27 02:16:56;;;;;;;9.23;6.30;;;;;;;9.96;87.29;96087.69;1039929;28;20175;-58
2021/03/27 02:17:47;;;;;;;13.18;6.32;;;;;;;9.87;88.14;96088.66;1035817;28;20040;-58
2021/03/27 02:18:30;;;;;;;12.57;6.22;;;;;;;9.81;88.31;96090.19;1033100;28;20125;-57
2021/03/27 02:19:04;;;;;;;11.20;6.72;;;;;;;9.82;87.63;96085.69;1036303;28;20353;-56
2021/03/27 02:19:52;;;;;;;13.77;6.75;;;;;;;9.88;86.79;96089.53;1039752;28;20026;-57
2021/03/27 02:20:41;;;;;;;8.90;5.28;;;;;;;9.89;86.37;96093.81;1036053;28;20388;-57
2021/03/27 02:21:28;;;;;;;12.27;5.85;;;;;;;9.90;86.03;96083.03;1041578;28;20359;-58
2021/03/27 02:22:13;;;;;;;10.07;6.45;;;;;;;9.84;87.29;96082.88;1035863;28;20010;-58
2021/03/27 02:23:03;;;;;;;9.05;5.75;;;;;;;9.84;86.18;96083.72;1035727;28;20404;-57
2021/03/27 02:23:53;;;;;;;10.32;6.88;;;;;;;9.76;87.60;96087.19;1039668;28;20018;-58
2021/03/27 02:24:43;;;;;;;12.20;6.00;;;;;;;9.77;87.04;96088.03;1039900;28;20499;-57
2021/03/27 02:25:24;;;;;;;11.85;6.82;;;;;;;9.80;86.39;96082.38;1035853;28;20021;-57
2021/03/27 02:26:08;;;;;;;13.25;6.95;;;;;;;9.68;87.98;96081.06;1039829;28;20014;-57
2021/03/27 02:26:49;;;;;;;10.73;6.60;;;;;;;9.71;87.67;96081.56;1044022;28;20021;-57
2021/03/27 02:27:23;;;;;;;8.90;5.80;;;;;;;9.71;87.75;96078.91;1047600;28;20016;-57
2021/03/27 02:28:13;;;;;;;11.52;6.40;;;;;;;9.63;89.24;96077.09;1039769;28;20014;-58
2021/03/27 02:29:05;;;;;;;11.65;6.80;;;;;;;9.53;89.78;96067.69;1035824;28;20041;-57
2021/03/27 02:29:52;;;;;;;14.32;6.90;;;;;;;9.50;90.80;96071.47;1039260;28;20024;-57
2021/03/27 02:30:33;;;;;;;9.15;5.90;;;;;;;9.49;90.25;96064.53;1045088;28;20040;-58
2021/03/27 02:31:10;;;;;;;11.93;6.75;;;;;;;9.50;90.54;96075.97;1043968;28;20474;-58
2021/03/27 02:31:41;;;;;;;10.18;6.47;;;;;;;9.47;90.99;96073.63;1039955;28;20360;-57
2021/03/27 02:32:18;;;;;;;13.23;6.95;;;;;;;9.47;90.20;96073.63;1030153;28;20039;-58
2021/03/27 02:33:01;;;;;;;11.27;6.82;;;;;;;9.41;91.07;96062.69;1031871;28;20014;-57
2021/03/27 02:33:43;;;;;;;10.85;6.53;;;;;;;9.45;91.11;96076.44;1027743;28;20015;-57
2021/03/27 02:34:34;;;;;;;11.00;7.25;;;;;;;9.33;92.11;96069.81;1035652;28;20017;-57
2021/03/27 02:35:15;;;;;;;11.25;6.22;;;;;;;9.35;92.03;96070.47;1031626;28;20018;-57
2021/03/27 02:35:59;;;;;;;12.07;6.30;;;;;;;9.37;92.29;96068.47;1044107;28;20071;-57
2021/03/27 02:36:44;;;;;;;12.93;6.43;;;;;;;9.39;91.51;96075.28;1039898;28;20155;-57
2021/03/27 02:37:26;;;;;;;13.45;7.00;;;;;;;9.33;91.90;96069.81;1032886;28;20140;-57
2021/03/27 02:38:16;;;;;;;11.05;6.68;;;;;;;9.35;91.42;96071.31;1027807;28;20099;-57
2021/03/27 02:39:06;;;;;;;10.23;6.03;;;;;;;9.36;91.65;96065.00;1032086;28;20069;-57
2021/03/27 02:39:50;;;;;;;10.38;6.32;;;;;;;9.33;92.59;96070.63;1033135;28;20021;-56
2021/03/27 02:40:24;;;;;;;9.75;6.50;;;;;;;9.33;92.91;96070.63;1032118;28;20010;-57
2021/03/27 02:41:15;;;;;;;10.18;6.47;;;;;;;9.33;92.66;96069.81;1031655;28;20419;-57
2021/03/27 02:42:05;;;;;;;11.05;6.38;;;;;;;9.31;93.12;96077.94;1031914;28;20492;-57
2021/03/27 02:42:55;;;;;;;12.23;6.72;;;;;;;9.27;93.79;96076.59;1038438;28;20022;-57
2021/03/27 02:43:32;;;;;;;10.40;6.38;;;;;;;9.27;93.26;96073.13;1035913;28;20010;-57
2021/03/27 02:44:08;;;;;;;10.07;6.82;;;;;;;9.27;93.64;96078.44;1035730;28;20025;-58
2021/03/27 02:44:50;;;;;;;14.68;7.03;;;;;;;9.29;93.47;96081.75;1027659;28;20015;-58
2021/03/27 02:45:25;;;;;;;10.63;6.00;;;;;;;9.29;93.10;96077.25;1035827;28;20014;-57
2021/03/27 02:46:09;;;;;;;9.90;6.28;;;;;;;9.31;93.05;96079.75;1035371;28;20014;-58
2021/03/27 02:46:49;;;;;;;13.15;6.57;;;;;;;9.30;93.05;96086.03;1031676;28;20488;-57
2021/03/27 02:47:29;;;;;;;11.10;7.10;;;;;;;9.30;93.27;96080.75;1031830;28;20017;-57
2021/03/27 02:48:04;;;;;;;10.70;6.55;;;;;;;9.28;93.29;96083.53;1039909;28;20009;-58
2021/03/27 02:48:51;;;;;;;11.98;6.43;;;;;;;9.30;93.30;96080.75;1031726;28;20042;-57
2021/03/27 02:49:37;;;;;;;9.63;6.88;;;;;;;9.28;93.53;96082.72;1031758;28;20392;-59
2021/03/27 02:50:11;;;;;;;12.48;6.75;;;;;;;9.25;93.97;96081.25;1039749;28;20030;-57
2021/03/27 02:50:44;;;;;;;14.90;7.05;;;;;;;9.25;93.67;96075.94;1039613;28;20014;-56
2021/03/27 02:51:32;;;;;;;11.40;6.55;;;;;;;9.19;94.42;96080.06;1031708;28;20156;-58
2021/03/27 02:52:17;;;;;;;12.05;6.82;;;;;;;9.18;94.55;96069.66;1031764;28;20014;-57
2021/03/27 02:53:08;;;;;;;11.55;6.68;;;;;;;9.19;94.87;96064.16;1036246;28;20013;-57
2021/03/27 02:53:44;;;;;;;12.05;6.63;;;;;;;9.17;94.86;96071.44;1036881;28;20010;-57
2021/03/27 02:54:27;;;;;;;12.40;7.18;;;;;;;9.14;95.73;96065.66;1039937;28;20457;-58
2021/03/27 02:55:18;;;;;;;11.10;6.55;;;;;;;9.14;95.28;96055.88;1035574;28;20076;-59
2021/03/27 02:56:09;;;;;;;10.32;6.95;;;;;;;9.15;95.10;96057.53;1040131;28;20032;-57
2021/03/27 02:56:49;;;;;;;11.50;6.05;;;;;;;9.15;95.16;96056.72;1041215;28;20588;-56
2021/03/27 02:57:31;;;;;;;12.57;7.10;;;;;;;9.14;95.24;96061.19;1039718;28;20400;-57
2021/03/27 02:58:21;;;;;;;12.10;6.82;;;;;;;9.16;95.02;96055.72;1035712;28;20010;-58
2021/03/27 02:59:00;;;;;;;13.30;7.43;;;;;;;9.14;95.06;96050.56;1040143;28;20027;-57
2021/03/27 02:59:51;;;;;;;9.75;6.32;;;;;;;9.13;95.52;96043.63;1035705;28;20022;-58
2021/03/27 03:00:25;;;;;;;13.85;6.70;;;;;;;9.10;95.83;96049.25;1039889;28;20124;-56
2021/03/27 03:01:10;;;;;;;10.10;6.38;;;;;;;9.09;96.19;96047.63;1039824;28;20017;-56
2021/03/27 03:01:51;;;;;;;13.95;6.55;;;;;;;9.08;96.23;96040.66;1039859;28;20028;-58
2021/03/27 03:02:24;;;;;;;13.20;6.95;;;;;;;9.07;96.36;96049.59;1031599;28;20030;-56
2021/03/27 03:02:56;;;;;;;11.98;6.63;;;;;;;9.01;96.86;96043.13;1031717;28;20427;-57
2021/03/27 03:03:40;;;;;;;12.02;6.32;;;;;;;8.99;97.08;96044.28;1039721;28;20022;-57
2021/03/27 03:04:23;;;;;;;13.32;6.72;;;;;;;8.94;97.35;96043.97;1039867;28;20039;-59
2021/03/27 03:05:07;;;;;;;10.23;6.78;;;;;;;8.94;97.74;96044.78;1031719;28;20018;-58
2021/03/27 03:05:48;;;;;;;15.95;6.88;;;;;;;8.93;97.22;96047.59;1031654;28;20053;-56
2021/03/27 03:06:32;;;;;;;10.25;6.53;;;;;;;8.92;97.43;96060.00;1036419;28;20026;-58